createdAt,value
2019-06-26T00:00:11.974Z,102135.05
2019-06-26T00:05:13.671Z,102149.27
2019-06-26T00:10:15.054Z,102154.06
2019-06-26T00:15:16.473Z,102151.44
2019-06-26T00:20:18.375Z,102158.08
2019-06-26T00:25:19.860Z,102159.28
2019-06-26T00:30:22.125Z,102177.90
2019-06-26T00:35:23.551Z,102180.85
2019-06-26T00:40:25.070Z,102181.58
2019-06-26T00:45:26.570Z,102181.01
2019-06-26T00:50:27.969Z,102170.63
2019-06-26T00:55:29.445Z,102173.27
2019-06-26T01:00:36.535Z,102174.52
2019-06-26T01:05:38.034Z,102171.73
2019-06-26T01:10:39.588Z,102180.57
2019-06-26T01:15:41.383Z,102179.23
2019-06-26T01:20:42.706Z,102182.67
2019-06-26T01:25:44.004Z,102179.84
2019-06-26T01:30:45.335Z,102188.24
2019-06-26T01:35:46.740Z,102182.81
2019-06-26T01:40:48.128Z,102181.86
2019-06-26T01:45:49.718Z,102184.61
2019-06-26T01:50:53.520Z,102194.87
2019-06-26T01:55:55.030Z,102203.66
2019-06-26T02:00:56.658Z,102214.34
2019-06-26T02:05:57.967Z,102207.55
2019-06-26T02:10:59.494Z,102216.36
2019-06-26T02:16:01.020Z,102226.47
2019-06-26T02:21:02.387Z,102231.64
2019-06-26T02:26:03.972Z,102232.98
2019-06-26T02:31:05.520Z,102254.38
2019-06-26T02:36:07.005Z,102253.85
2019-06-26T02:41:08.431Z,102257.30
2019-06-26T02:46:10.004Z,102264.66
2019-06-26T02:51:11.412Z,102268.42
2019-06-26T02:56:12.908Z,102277.82
2019-06-26T03:01:14.439Z,102278.98
2019-06-26T03:06:15.826Z,102283.63
2019-06-26T03:11:17.303Z,102276.84
2019-06-26T03:16:18.738Z,102303.52
2019-06-26T03:21:20.479Z,102308.28
2019-06-26T03:26:21.770Z,102320.70
2019-06-26T03:31:23.285Z,102322.38
2019-06-26T03:36:24.677Z,102334.30
2019-06-26T03:41:26.166Z,102344.97
2019-06-26T03:46:27.558Z,102353.42
2019-06-26T03:51:28.868Z,102349.19
2019-06-26T03:56:30.656Z,102354.66
2019-06-26T04:01:32.069Z,102356.35
2019-06-26T04:06:33.567Z,102356.86
2019-06-26T04:11:34.842Z,102360.01
2019-06-26T04:16:36.361Z,102371.86
2019-06-26T04:21:37.747Z,102375.73
2019-06-26T04:26:39.240Z,102370.81
2019-06-26T04:31:40.705Z,102371.88
2019-06-26T04:36:42.223Z,102369.42
2019-06-26T04:41:43.601Z,102370.71
2019-06-26T04:46:45.015Z,102380.72
2019-06-26T04:51:46.302Z,102392.02
2019-06-26T04:56:47.697Z,102410.30
2019-06-26T05:01:49.211Z,102403.67
2019-06-26T05:06:50.804Z,102404.38
2019-06-26T05:11:52.119Z,102417.41
2019-06-26T05:16:53.605Z,102418.33
2019-06-26T05:21:55.104Z,102429.38
2019-06-26T05:26:56.686Z,102434.30
2019-06-26T05:31:58.200Z,102442.12
2019-06-26T05:36:59.800Z,102434.04
2019-06-26T05:42:06.635Z,102429.20
2019-06-26T05:47:07.528Z,102423.19
2019-06-26T05:52:09.054Z,102436.37
2019-06-26T05:57:10.692Z,102449.08
2019-06-26T06:02:12.204Z,102441.69
2019-06-26T06:07:13.808Z,102446.56
2019-06-26T06:12:15.208Z,102457.90
2019-06-26T06:17:16.732Z,102465.78
2019-06-26T06:22:18.110Z,102480.34
2019-06-26T06:27:19.629Z,102479.14
2019-06-26T06:32:21.054Z,102474.94
2019-06-26T06:37:22.448Z,102486.58
2019-06-26T06:42:23.967Z,102489.06
2019-06-26T06:47:25.793Z,102502.06
2019-06-26T06:52:27.308Z,102506.05
2019-06-26T06:57:28.767Z,102510.72
2019-06-26T07:02:30.259Z,102515.11
2019-06-26T07:07:31.704Z,102525.47
2019-06-26T07:12:33.389Z,102540.77
2019-06-26T07:17:35.182Z,102555.26
2019-06-26T07:22:36.660Z,102556.56
2019-06-26T07:27:38.056Z,102573.77
2019-06-26T07:32:39.547Z,102580.97
2019-06-26T07:37:41.087Z,102587.14
2019-06-26T07:42:42.608Z,102598.51
2019-06-26T07:47:47.067Z,102616.99
2019-06-26T07:52:48.608Z,102612.15
2019-06-26T07:57:50.034Z,102624.62
2019-06-26T08:02:51.526Z,102617.78
2019-06-26T08:07:53.115Z,102609.45
2019-06-26T08:12:54.707Z,102616.37
2019-06-26T08:18:00.984Z,102630.14
2019-06-26T08:22:59.633Z,102634.19
2019-06-26T08:28:01.111Z,102621.21
2019-06-26T08:33:02.564Z,102620.14
2019-06-26T08:38:10.170Z,102623.93
2019-06-26T08:43:07.382Z,102626.14
2019-06-26T08:48:22.788Z,102618.03
2019-06-26T08:53:12.280Z,102627.71
2019-06-26T08:58:13.759Z,102621.62
2019-06-26T09:03:15.283Z,102631.55
2019-06-26T09:08:16.894Z,102639.72
2019-06-26T09:13:18.407Z,102633.62
2019-06-26T09:18:34.368Z,102635.56
2019-06-26T09:23:23.271Z,102646.12
2019-06-26T09:28:24.793Z,102639.87
2019-06-26T09:33:26.218Z,102639.58
2019-06-26T09:38:27.766Z,102640.64
2019-06-26T09:43:29.242Z,102645.62
2019-06-26T09:48:30.704Z,102646.70
2019-06-26T09:53:46.078Z,102662.98
2019-06-26T09:58:40.952Z,102671.49
2019-06-26T10:03:45.143Z,102671.49
2019-06-26T10:08:46.102Z,102667.25
2019-06-26T10:13:47.679Z,102667.25
2019-06-26T10:18:49.111Z,102656.06
2019-06-26T10:23:50.458Z,102676.69
2019-06-26T10:28:52.388Z,102681.69
2019-06-26T10:33:54.267Z,102696.94
2019-06-26T10:38:55.651Z,102682.59
2019-06-26T10:43:57.199Z,102681.68
2019-06-26T10:48:58.693Z,102693.80
2019-06-26T10:54:00.251Z,102692.47
2019-06-26T10:59:01.793Z,102692.03
2019-06-26T11:04:03.506Z,102690.64
2019-06-26T11:09:06.234Z,102696.03
2019-06-26T11:14:07.776Z,102694.16
2019-06-26T11:19:09.246Z,102689.66
2019-06-26T11:24:10.750Z,102690.56
2019-06-26T11:29:12.268Z,102695.10
2019-06-26T11:34:13.781Z,102688.61
2019-06-26T11:39:15.264Z,102686.34
2019-06-26T11:44:21.237Z,102689.58
2019-06-26T11:49:22.601Z,102694.85
2019-06-26T11:54:24.122Z,102691.19
2019-06-26T11:59:25.490Z,102693.55
2019-06-26T12:04:27.014Z,102701.70
2019-06-26T12:09:28.473Z,102708.86
2019-06-26T12:14:29.977Z,102700.16
2019-06-26T12:19:31.448Z,102711.70
2019-06-26T12:24:34.017Z,102731.70
2019-06-26T12:29:35.922Z,102736.73
2019-06-26T12:34:37.334Z,102740.33
2019-06-26T12:39:38.927Z,102751.56
2019-06-26T12:44:40.404Z,102759.73
2019-06-26T12:49:41.895Z,102766.05
2019-06-26T12:54:43.436Z,102764.23
2019-06-26T12:59:56.621Z,102761.09
2019-06-26T13:04:48.260Z,102760.63
2019-06-26T13:09:49.662Z,102756.17
2019-06-26T13:14:51.205Z,102746.77
2019-06-26T13:19:52.720Z,102742.71
2019-06-26T13:24:54.295Z,102742.25
2019-06-26T13:29:55.760Z,102726.58
2019-06-26T13:34:57.178Z,102725.20
2019-06-26T13:39:58.770Z,102709.51
2019-06-26T13:45:00.519Z,102713.09
2019-06-26T13:50:02.948Z,102713.09
2019-06-26T13:55:04.604Z,102698.27
2019-06-26T14:00:06.566Z,102690.64
2019-06-26T14:05:08.052Z,102690.16
2019-06-26T14:10:09.479Z,102687.47
2019-06-26T14:15:11.314Z,102679.73
2019-06-26T14:20:12.714Z,102673.91
2019-06-26T14:25:14.264Z,102684.70
2019-06-26T14:30:15.770Z,102684.22
2019-06-26T14:35:22.673Z,102682.88
2019-06-26T14:40:24.259Z,102684.59
2019-06-26T14:45:25.736Z,102685.03
2019-06-26T14:50:27.223Z,102690.44
2019-06-26T14:55:28.858Z,102691.30
2019-06-26T15:00:30.253Z,102700.81
2019-06-26T15:05:31.765Z,102696.25
2019-06-26T15:10:33.278Z,102698.03
2019-06-26T15:15:34.570Z,102712.04
2019-06-26T15:20:36.185Z,102712.03
2019-06-26T15:25:37.649Z,102716.56
2019-06-26T15:30:39.067Z,102708.47
2019-06-26T15:35:40.398Z,102712.51
2019-06-26T15:40:41.761Z,102702.62
2019-06-26T15:45:43.307Z,102712.04
2019-06-26T15:50:44.894Z,102708.45
2019-06-26T15:55:47.545Z,102700.40
2019-06-26T16:00:49.131Z,102709.88
2019-06-26T16:05:50.635Z,102691.98
2019-06-26T16:10:52.255Z,102696.91
2019-06-26T16:15:53.822Z,102698.72
2019-06-26T16:20:55.397Z,102704.11
2019-06-26T16:25:56.935Z,102709.05
2019-06-26T16:30:58.629Z,102704.99
2019-06-26T16:36:00.199Z,102704.11
2019-06-26T16:41:04.997Z,102707.27
2019-06-26T16:46:06.326Z,102711.77
2019-06-26T16:51:07.902Z,102711.30
2019-06-26T16:56:09.434Z,102705.88
2019-06-26T17:01:11.044Z,102713.94
2019-06-26T17:06:12.546Z,102710.74
2019-06-26T17:11:14.083Z,102709.84
2019-06-26T17:16:15.507Z,102701.34
2019-06-26T17:21:17.051Z,102712.19
2019-06-26T17:26:18.455Z,102708.52
2019-06-26T17:31:19.877Z,102706.36
2019-06-26T17:36:21.449Z,102702.67
2019-06-26T17:41:22.920Z,102701.72
2019-06-26T17:46:24.297Z,102703.59
2019-06-26T17:51:25.857Z,102701.41
2019-06-26T17:56:27.229Z,102695.88
2019-06-26T18:01:28.766Z,102704.08
2019-06-26T18:06:30.285Z,102715.33
2019-06-26T18:11:31.754Z,102720.12
2019-06-26T18:16:33.469Z,102724.88
2019-06-26T18:21:35.040Z,102719.83
2019-06-26T18:26:36.561Z,102718.33
2019-06-26T18:31:38.119Z,102722.12
2019-06-26T18:36:39.595Z,102735.70
2019-06-26T18:41:41.072Z,102732.73
2019-06-26T18:46:42.546Z,102724.91
2019-06-26T18:51:44.097Z,102723.48
2019-06-26T18:56:45.696Z,102730.62
2019-06-26T19:01:47.158Z,102738.85
2019-06-26T19:06:48.650Z,102732.63
2019-06-26T19:11:50.108Z,102739.64
2019-06-26T19:16:51.639Z,102737.89
2019-06-26T19:21:53.176Z,102745.70
2019-06-26T19:26:54.735Z,102761.52
2019-06-26T19:31:56.220Z,102769.54
2019-06-26T19:36:57.759Z,102773.26
2019-06-26T19:41:59.230Z,102776.23
2019-06-26T19:47:00.954Z,102788.61
2019-06-26T19:52:02.513Z,102791.13
2019-06-26T19:57:04.166Z,102792.08
2019-06-26T20:02:05.817Z,102802.83
2019-06-26T20:07:07.133Z,102813.66
2019-06-26T20:12:09.647Z,102817.41
2019-06-26T20:17:11.066Z,102826.49
2019-06-26T20:22:14.575Z,102828.82
2019-06-26T20:27:16.042Z,102843.35
2019-06-26T20:32:17.565Z,102844.05
2019-06-26T20:37:19.053Z,102845.63
2019-06-26T20:42:20.482Z,102851.02
2019-06-26T20:47:22.065Z,102849.41
2019-06-26T20:52:23.570Z,102842.00
2019-06-26T20:57:25.008Z,102856.56
2019-06-26T21:02:26.608Z,102858.57
2019-06-26T21:07:28.263Z,102866.97
2019-06-26T21:12:29.792Z,102870.62
2019-06-26T21:17:31.287Z,102866.16
2019-06-26T21:22:32.801Z,102877.80
2019-06-26T21:27:34.376Z,102871.77
2019-06-26T21:32:35.976Z,102880.71
2019-06-26T21:37:37.983Z,102866.84
2019-06-26T21:42:39.368Z,102878.48
2019-06-26T21:47:40.783Z,102880.45
2019-06-26T21:52:42.367Z,102888.94
2019-06-26T21:57:43.782Z,102882.47
2019-06-26T22:02:45.417Z,102879.70
2019-06-26T22:07:46.935Z,102890.80
2019-06-26T22:12:48.442Z,102900.86
2019-06-26T22:17:50.135Z,102902.11
2019-06-26T22:22:51.584Z,102902.38
2019-06-26T22:27:53.103Z,102903.12
2019-06-26T22:32:54.628Z,102911.28
2019-06-26T22:37:56.023Z,102916.44
2019-06-26T22:42:57.634Z,102917.98
2019-06-26T22:47:59.052Z,102919.10
2019-06-26T22:53:00.569Z,102920.31
2019-06-26T22:58:02.070Z,102917.03
2019-06-26T23:03:03.618Z,102923.14
2019-06-26T23:08:04.990Z,102924.42
2019-06-26T23:13:09.516Z,102927.00
2019-06-26T23:18:09.788Z,102921.27
2019-06-26T23:23:11.141Z,102928.58
2019-06-26T23:28:12.536Z,102931.41
2019-06-26T23:33:14.004Z,102938.67
2019-06-26T23:38:15.312Z,102939.04
2019-06-26T23:43:16.774Z,102934.56
2019-06-26T23:48:18.279Z,102928.04
2019-06-26T23:53:20.446Z,102937.09
2019-06-26T23:58:21.923Z,102929.16
